Terminal Aerodrome Forecast
Issued by NWS

Home | Current Version | Previous Version | Text Only | Print | Product List | Glossary On
Versions: 1 2 3 4 5 6 7 8 9 10 11 12 13 14
798
FTUS45 KFGZ 251631 AAA
TAFPRC
TAF AMD
KPRC 251631Z 2517/2612 13013G20KT P6SM SKC
     FM251900 21014G24KT P6SM SKC
     FM260200 20008KT P6SM SKC=

USA.gov is the U.S. government's official web portal to all federal, state and local government web resources and services.